Observation data for O'Donnell on 05/15/2018      Previous  Date  Next       Current Mesonet Observations  Soil Data  Daily Summary Page  Observations in Plain Language
KOES 150500Z 15008G13KT 23/16 A2995 RMK A01 T02280155  RH  066%=      5-min Rain = 0
KOES 150505Z 14010KT 23/16 A2995 RMK A01 T02280155  RH  067%=      5-min Rain = 0
KOES 150510Z 15010KT 23/16 A2995 RMK A01 T02280155  RH  066%=      5-min Rain = 0
KOES 150515Z 16012G18KT 23/15 A2995 RMK A01 T02280153  RH  066%=      5-min Rain = 0
KOES 150520Z 17012KT 23/15 A2995 RMK A01 T02270152  RH  065%=      5-min Rain = 0
KOES 150525Z 18014G19KT 23/15 A2994 RMK A01 T02260150  RH  065%=      5-min Rain = 0
KOES 150530Z 18015KT 23/15 A2994 RMK A01 T02250150  RH  065%=      5-min Rain = 0
KOES 150535Z 17015G22KT 22/15 A2994 RMK A01 T02240149  RH  065%=      5-min Rain = 0
KOES 150540Z 17015G25KT 22/15 A2994 RMK A01 T02230149  RH  066%=      5-min Rain = 0
KOES 150545Z 18015G20KT 22/15 A2995 RMK A01 T02230150  RH  066%=      5-min Rain = 0
KOES 150550Z 17013KT 22/15 A2995 RMK A01 T02220150  RH  067%=      5-min Rain = 0
KOES 150555Z 16011G16KT 22/15 A2996 RMK A01 T02210149  RH  067%=      5-min Rain = 0
KOES 150600Z 16011G17KT 22/15 A2996 RMK A01 T02200149  RH  067%=      5-min Rain = 0
KOES 150605Z 16012KT 22/15 A2996 RMK A01 T02190148  RH  067%=      5-min Rain = 0
KOES 150610Z 17011G16KT 22/15 A2996 RMK A01 T02180148  RH  067%=      5-min Rain = 0
KOES 150615Z 18013KT 22/15 A2996 RMK A01 T02160148  RH  068%=      5-min Rain = 0
KOES 150620Z 18014G19KT 22/15 A2995 RMK A01 T02160148  RH  068%=      5-min Rain = 0
KOES 150625Z 18014G21KT 22/15 A2995 RMK A01 T02150149  RH  069%=      5-min Rain = 0
KOES 150630Z 18012G17KT 21/15 A2995 RMK A01 T02140149  RH  069%=      5-min Rain = 0
KOES 150635Z 18013KT 21/15 A2995 RMK A01 T02140149  RH  069%=      5-min Rain = 0
KOES 150640Z 19012G17KT 21/15 A2995 RMK A01 T02130148  RH  070%=      5-min Rain = 0
KOES 150645Z 19013KT 21/15 A2995 RMK A01 T02130148  RH  070%=      5-min Rain = 0
KOES 150650Z 18012KT 21/15 A2996 RMK A01 T02120148  RH  070%=      5-min Rain = 0
KOES 150655Z 18012KT 21/15 A2996 RMK A01 T02110148  RH  070%=      5-min Rain = 0
KOES 150700Z 19013G19KT 21/15 A2996 RMK A01 T02110148  RH  070%=      5-min Rain = 0
KOES 150705Z 19014KT 21/15 A2995 RMK A01 T02110147  RH  070%=      5-min Rain = 0
KOES 150710Z 18013G19KT 21/15 A2996 RMK A01 T02110147  RH  070%=      5-min Rain = 0
KOES 150715Z 18014G19KT 21/15 A2996 RMK A01 T02110147  RH  070%=      5-min Rain = 0
KOES 150720Z 18016G21KT 21/15 A2995 RMK A01 T02100147  RH  070%=      5-min Rain = 0
KOES 150725Z 18014G19KT 21/15 A2995 RMK A01 T02090147  RH  071%=      5-min Rain = 0
KOES 150730Z 18016G24KT 21/15 A2995 RMK A01 T02080148  RH  071%=      5-min Rain = 0
KOES 150735Z 18016G21KT 21/15 A2995 RMK A01 T02080148  RH  072%=      5-min Rain = 0
KOES 150740Z 18015G20KT 21/15 A2995 RMK A01 T02070148  RH  072%=      5-min Rain = 0
KOES 150745Z 19016G22KT 21/15 A2995 RMK A01 T02060149  RH  073%=      5-min Rain = 0
KOES 150750Z 19015G21KT 21/15 A2995 RMK A01 T02050149  RH  073%=      5-min Rain = 0
KOES 150755Z 19013KT 21/15 A2995 RMK A01 T02050149  RH  073%=      5-min Rain = 0
KOES 150800Z 19013KT 20/15 A2995 RMK A01 T02030149  RH  074%=      5-min Rain = 0
KOES 150805Z 19012G18KT 20/15 A2995 RMK A01 T02030149  RH  074%=      5-min Rain = 0
KOES 150810Z 18012KT 20/15 A2994 RMK A01 T02020149  RH  075%=      5-min Rain = 0
KOES 150815Z 19012KT 20/15 A2994 RMK A01 T02010150  RH  076%=      5-min Rain = 0
KOES 150820Z 19011KT 20/15 A2994 RMK A01 T02010151  RH  076%=      5-min Rain = 0
KOES 150825Z 19012KT 20/15 A2995 RMK A01 T02010152  RH  077%=      5-min Rain = 0
KOES 150830Z 19013G18KT 20/15 A2995 RMK A01 T02010153  RH  077%=      5-min Rain = 0
KOES 150835Z 19012KT 20/15 A2995 RMK A01 T02010154  RH  078%=      5-min Rain = 0
KOES 150840Z 19011KT 20/16 A2995 RMK A01 T02010156  RH  079%=      5-min Rain = 0
KOES 150845Z 19012KT 20/16 A2995 RMK A01 T02010157  RH  079%=      5-min Rain = 0
KOES 150850Z 19013G19KT 20/16 A2995 RMK A01 T02020157  RH  079%=      5-min Rain = 0
KOES 150855Z 19015KT 20/16 A2994 RMK A01 T02020158  RH  079%=      5-min Rain = 0
KOES 150900Z 19013G18KT 20/16 A2994 RMK A01 T02020158  RH  079%=      5-min Rain = 0
KOES 150905Z 19013G19KT 20/16 A2994 RMK A01 T02020157  RH  079%=      5-min Rain = 0
KOES 150910Z 19013G18KT 20/16 A2994 RMK A01 T02020157  RH  079%=      5-min Rain = 0
KOES 150915Z 19013G18KT 20/16 A2994 RMK A01 T02020157  RH  079%=      5-min Rain = 0
KOES 150920Z 19012G17KT 20/16 A2994 RMK A01 T02010157  RH  079%=      5-min Rain = 0
KOES 150925Z 20013G18KT 20/16 A2994 RMK A01 T02010156  RH  079%=      5-min Rain = 0
KOES 150930Z 19011G16KT 20/16 A2994 RMK A01 T02010156  RH  079%=      5-min Rain = 0
KOES 150935Z 19012G17KT 20/16 A2994 RMK A01 T02010155  RH  079%=      5-min Rain = 0
KOES 150940Z 19012G18KT 20/16 A2994 RMK A01 T02000155  RH  079%=      5-min Rain = 0
KOES 150945Z 19012G17KT 20/15 A2994 RMK A01 T02000154  RH  078%=      5-min Rain = 0
KOES 150950Z 19012KT 20/15 A2994 RMK A01 T02000154  RH  078%=      5-min Rain = 0
KOES 150955Z 20011KT 20/15 A2994 RMK A01 T02000153  RH  078%=      5-min Rain = 0
KOES 151000Z 19011KT 20/15 A2994 RMK A01 T01980153  RH  079%=      5-min Rain = 0
KOES 151005Z 19010KT 20/15 A2994 RMK A01 T01980153  RH  079%=      5-min Rain = 0
KOES 151010Z 19010KT 20/15 A2994 RMK A01 T01980153  RH  079%=      5-min Rain = 0
KOES 151015Z 19010KT 20/15 A2994 RMK A01 T01970153  RH  079%=      5-min Rain = 0
KOES 151020Z 19011KT 20/15 A2994 RMK A01 T01970153  RH  079%=      5-min Rain = 0
KOES 151025Z 19010KT 20/15 A2994 RMK A01 T01970152  RH  079%=      5-min Rain = 0
KOES 151030Z 19010KT 20/15 A2994 RMK A01 T01970152  RH  079%=      5-min Rain = 0
KOES 151035Z 19010KT 20/15 A2995 RMK A01 T01980152  RH  078%=      5-min Rain = 0
KOES 151040Z 19010KT 20/15 A2995 RMK A01 T01990152  RH  078%=      5-min Rain = 0
KOES 151045Z 19010KT 20/15 A2995 RMK A01 T01990152  RH  077%=      5-min Rain = 0
KOES 151050Z 19010KT 20/15 A2995 RMK A01 T01990151  RH  078%=      5-min Rain = 0
KOES 151055Z 19009G14KT 20/15 A2994 RMK A01 T01970151  RH  078%=      5-min Rain = 0
KOES 151100Z 19009KT 20/15 A2994 RMK A01 T01960151  RH  079%=      5-min Rain = 0
KOES 151105Z 19010KT 20/15 A2994 RMK A01 T01950151  RH  079%=      5-min Rain = 0
KOES 151110Z 19009KT 19/15 A2995 RMK A01 T01940151  RH  080%=      5-min Rain = 0
KOES 151115Z 19009KT 19/15 A2995 RMK A01 T01930150  RH  080%=      5-min Rain = 0
KOES 151120Z 19009KT 19/15 A2994 RMK A01 T01920150  RH  080%=      5-min Rain = 0
KOES 151125Z 20009KT 19/15 A2994 RMK A01 T01910150  RH  081%=      5-min Rain = 0
KOES 151130Z 20009KT 19/15 A2994 RMK A01 T01900149  RH  081%=      5-min Rain = 0
KOES 151135Z 20008KT 19/15 A2994 RMK A01 T01890149  RH  081%=      5-min Rain = 0
KOES 151140Z 20009KT 19/15 A2994 RMK A01 T01860147  RH  082%=      5-min Rain = 0
KOES 151145Z 20009KT 19/15 A2994 RMK A01 T01850147  RH  082%=      5-min Rain = 0
KOES 151150Z 20008KT 18/15 A2994 RMK A01 T01840147  RH  083%=      5-min Rain = 0
KOES 151155Z 20007KT 18/15 A2995 RMK A01 T01820146  RH  083%=      5-min Rain = 0
KOES 151200Z 20006KT 18/14 A2995 RMK A01 T01790144  RH  083%=      5-min Rain = 0
KOES 151205Z 21006KT 18/14 A2995 RMK A01 T01770143  RH  084%=      5-min Rain = 0
KOES 151210Z 22005KT 18/14 A2995 RMK A01 T01760143  RH  084%=      5-min Rain = 0
KOES 151215Z 22006KT 18/14 A2995 RMK A01 T01760143  RH  085%=      5-min Rain = 0
KOES 151220Z 22006KT 18/14 A2996 RMK A01 T01760144  RH  085%=      5-min Rain = 0
KOES 151225Z 21006KT 18/14 A2996 RMK A01 T01770144  RH  085%=      5-min Rain = 0
KOES 151230Z 21006KT 18/15 A2996 RMK A01 T01780145  RH  084%=      5-min Rain = 0
KOES 151235Z 22007KT 18/15 A2996 RMK A01 T01800146  RH  084%=      5-min Rain = 0
KOES 151240Z 22007KT 18/15 A2996 RMK A01 T01830148  RH  083%=      5-min Rain = 0
KOES 151245Z 22008KT 19/15 A2996 RMK A01 T01860149  RH  083%=      5-min Rain = 0
KOES 151250Z 23009KT 19/15 A2996 RMK A01 T01900150  RH  081%=      5-min Rain = 0
KOES 151255Z 23009KT 19/15 A2996 RMK A01 T01920151  RH  081%=      5-min Rain = 0
KOES 151300Z 23010KT 19/15 A2996 RMK A01 T01940152  RH  080%=      5-min Rain = 0
KOES 151305Z 23010KT 20/15 A2996 RMK A01 T01960152  RH  079%=      5-min Rain = 0
KOES 151310Z 24010KT 20/15 A2996 RMK A01 T01980153  RH  079%=      5-min Rain = 0
KOES 151315Z 24010KT 20/15 A2997 RMK A01 T02000154  RH  078%=      5-min Rain = 0
KOES 151320Z 24011KT 20/15 A2997 RMK A01 T02010154  RH  078%=      5-min Rain = 0
KOES 151325Z 23010KT 20/16 A2997 RMK A01 T02030156  RH  078%=      5-min Rain = 0
KOES 151330Z 23011KT 21/16 A2997 RMK A01 T02050157  RH  077%=      5-min Rain = 0
KOES 151335Z 23012KT 21/16 A2997 RMK A01 T02080159  RH  077%=      5-min Rain = 0
KOES 151340Z 23011KT 21/16 A2997 RMK A01 T02090160  RH  077%=      5-min Rain = 0
KOES 151345Z 23012KT 21/16 A2997 RMK A01 T02120161  RH  077%=      5-min Rain = 0
KOES 151350Z 24011KT 22/16 A2997 RMK A01 T02150163  RH  076%=      5-min Rain = 0
KOES 151355Z 23012KT 22/16 A2997 RMK A01 T02180163  RH  075%=      5-min Rain = 0
KOES 151400Z 24013KT 22/16 A2998 RMK A01 T02190163  RH  074%=      5-min Rain = 0
KOES 151405Z 23011KT 22/16 A2998 RMK A01 T02230164  RH  073%=      5-min Rain = 0
KOES 151410Z 23011KT 23/16 A2998 RMK A01 T02260163  RH  071%=      5-min Rain = 0
KOES 151415Z 24012KT 23/16 A2998 RMK A01 T02300162  RH  069%=      5-min Rain = 0
KOES 151420Z 23011KT 23/16 A2998 RMK A01 T02330162  RH  067%=      5-min Rain = 0
KOES 151425Z 23012KT 24/16 A2998 RMK A01 T02380161  RH  065%=      5-min Rain = 0
KOES 151430Z 23014KT 24/16 A2998 RMK A01 T02400159  RH  063%=      5-min Rain = 0
KOES 151435Z 23015KT 24/16 A2998 RMK A01 T02430157  RH  061%=      5-min Rain = 0
KOES 151440Z 23013KT 25/16 A2998 RMK A01 T02460156  RH  060%=      5-min Rain = 0
KOES 151445Z 23014KT 25/16 A2998 RMK A01 T02490155  RH  059%=      5-min Rain = 0
KOES 151450Z 22013KT 25/15 A2998 RMK A01 T02520154  RH  057%=      5-min Rain = 0
KOES 151455Z 22014KT 25/15 A2998 RMK A01 T02530154  RH  057%=      5-min Rain = 0
KOES 151500Z 23012KT 25/16 A2998 RMK A01 T02540155  RH  057%=      5-min Rain = 0
KOES 151505Z 24012KT 26/16 A2998 RMK A01 T02570155  RH  056%=      5-min Rain = 0
KOES 151510Z 23013KT 26/15 A2998 RMK A01 T02610150  RH  053%=      5-min Rain = 0
KOES 151515Z 24012G17KT 26/15 A2998 RMK A01 T02640148  RH  051%=      5-min Rain = 0
KOES 151520Z 23012KT 26/15 A2998 RMK A01 T02630147  RH  051%=      5-min Rain = 0
KOES 151525Z 23012KT 27/15 A2998 RMK A01 T02650146  RH  050%=      5-min Rain = 0
KOES 151530Z 23012KT 27/14 A2998 RMK A01 T02680144  RH  049%=      5-min Rain = 0
KOES 151535Z 23010KT 27/15 A2998 RMK A01 T02700145  RH  048%=      5-min Rain = 0
KOES 151540Z 22010KT 28/14 A2998 RMK A01 T02760143  RH  046%=      5-min Rain = 0
KOES 151545Z 23012KT 28/14 A2998 RMK A01 T02790141  RH  045%=      5-min Rain = 0
KOES 151550Z 24011KT 28/14 A2998 RMK A01 T02820138  RH  043%=      5-min Rain = 0
KOES 151555Z 24012KT 29/14 A2998 RMK A01 T02860136  RH  041%=      5-min Rain = 0
KOES 151600Z 23010KT 29/14 A2998 RMK A01 T02870135  RH  041%=      5-min Rain = 0
KOES 151605Z 23010KT 29/14 A2998 RMK A01 T02900136  RH  041%=      5-min Rain = 0
KOES 151610Z 23012KT 29/13 A2998 RMK A01 T02920129  RH  038%=      5-min Rain = 0
KOES 151615Z 24010KT 30/13 A2998 RMK A01 T02960131  RH  038%=      5-min Rain = 0
KOES 151620Z 22011G17KT 30/13 A2998 RMK A01 T02960129  RH  037%=      5-min Rain = 0
KOES 151625Z 22011KT 30/13 A2998 RMK A01 T02990127  RH  036%=      5-min Rain = 0
KOES 151630Z 22011KT 30/13 A2998 RMK A01 T03020126  RH  035%=      5-min Rain = 0
KOES 151635Z 27009G14KT 31/12 A2999 RMK A01 T03080121  RH  033%=      5-min Rain = 0
KOES 151640Z 30008KT 31/12 A2999 RMK A01 T03110120  RH  032%=      5-min Rain = 0
KOES 151645Z 28007KT 31/12 A2999 RMK A01 T03100116  RH  031%=      5-min Rain = 0
KOES 151650Z 29006KT 31/11 A2999 RMK A01 T03130112  RH  030%=      5-min Rain = 0
KOES 151655Z 32008G14KT 31/11 A2999 RMK A01 T03140106  RH  029%=      5-min Rain = 0
KOES 151700Z 32010G17KT 32/11 A2999 RMK A01 T03190105  RH  028%=      5-min Rain = 0
KOES 151705Z 35010G17KT 32/12 A30 RMK A01 T03200116  RH  030%=      5-min Rain = 0
KOES 151710Z 03016KT 31/12 A30 RMK A01 T03140122  RH  032%=      5-min Rain = 0
KOES 151715Z 03014G20KT 31/11 A30 RMK A01 T03060114  RH  032%=      5-min Rain = 0
KOES 151720Z 02009G17KT 30/11 A30 RMK A01 T03030113  RH  032%=      5-min Rain = 0
KOES 151725Z 05006G11KT 30/11 A2999 RMK A01 T03010113  RH  032%=      5-min Rain = 0
KOES 151730Z 02011G20KT 31/11 A2999 RMK A01 T03100114  RH  031%=      5-min Rain = 0
KOES 151735Z 02009G15KT 31/11 A2999 RMK A01 T03050113  RH  032%=      5-min Rain = 0
KOES 151740Z 04008KT 31/11 A2999 RMK A01 T03070109  RH  031%=      5-min Rain = 0
KOES 151745Z 07009G17KT 31/12 A2999 RMK A01 T03100122  RH  033%=      5-min Rain = 0
KOES 151750Z 04010G18KT 32/12 A2999 RMK A01 T03170120  RH  031%=      5-min Rain = 0
KOES 151755Z 07007G13KT 31/12 A2998 RMK A01 T03110121  RH  032%=      5-min Rain = 0
KOES 151800Z 35006G13KT 32/11 A2998 RMK A01 T03150112  RH  030%=      5-min Rain = 0
KOES 151805Z 35006G12KT 32/11 A2998 RMK A01 T03190107  RH  028%=      5-min Rain = 0
KOES 151810Z 34007G14KT 32/11 A2998 RMK A01 T03220109  RH  028%=      5-min Rain = 0
KOES 151815Z 02007KT 32/11 A2998 RMK A01 T03240111  RH  028%=      5-min Rain = 0
KOES 151820Z 03005G10KT 32/11 A2998 RMK A01 T03220108  RH  028%=      5-min Rain = 0
KOES 151825Z 36011G19KT 33/11 A2997 RMK A01 T03250110  RH  028%=      5-min Rain = 0
KOES 151830Z 36007KT 32/11 A2997 RMK A01 T03220107  RH  028%=      5-min Rain = 0
KOES 151835Z 33007G14KT 33/09 A2997 RMK A01 T03250089  RH  024%=      5-min Rain = 0
KOES 151840Z 36005G12KT 33/10 A2997 RMK A01 T03270097  RH  025%=      5-min Rain = 0
KOES 151845Z 34006G13KT 33/10 A2997 RMK A01 T03280098  RH  025%=      5-min Rain = 0
KOES 151850Z 32004KT 33/10 A2997 RMK A01 T03290097  RH  025%=      5-min Rain = 0
KOES 151855Z 03004G10KT 33/09 A2997 RMK A01 T03340088  RH  023%=      5-min Rain = 0
KOES 151900Z 03003KT 34/09 A2997 RMK A01 T03360086  RH  022%=      5-min Rain = 0
KOES 151905Z 34005G10KT 34/09 A2997 RMK A01 T03360090  RH  023%=      5-min Rain = 0
KOES 151910Z 34011G16KT 34/08 A2997 RMK A01 T03420078  RH  020%=      5-min Rain = 0
KOES 151915Z 33009G14KT 34/08 A2996 RMK A01 T03430075  RH  020%=      5-min Rain = 0
KOES 151920Z 35005G10KT 34/07 A2996 RMK A01 T03420074  RH  020%=      5-min Rain = 0
KOES 151925Z 36007KT 34/06 A2996 RMK A01 T03420063  RH  018%=      5-min Rain = 0
KOES 151930Z 34006G11KT 34/06 A2996 RMK A01 T03410058  RH  018%=      5-min Rain = 0
KOES 151935Z 32005KT 34/06 A2996 RMK A01 T03430057  RH  017%=      5-min Rain = 0
KOES 151940Z 01008G13KT 34/08 A2996 RMK A01 T03420080  RH  021%=      5-min Rain = 0
KOES 151945Z 03007G14KT 34/08 A2996 RMK A01 T03400083  RH  021%=      5-min Rain = 0
KOES 151950Z 09010G15KT 34/10 A2996 RMK A01 T03350100  RH  025%=      5-min Rain = 0
KOES 151955Z 09014KT 32/11 A2996 RMK A01 T03240109  RH  028%=      5-min Rain = 0
KOES 152000Z 09015KT 33/11 A2995 RMK A01 T03260109  RH  028%=      5-min Rain = 0
KOES 152005Z 08014G19KT 32/11 A2995 RMK A01 T03230107  RH  028%=      5-min Rain = 0
KOES 152010Z 11013G19KT 32/11 A2994 RMK A01 T03180105  RH  028%=      5-min Rain = 0
KOES 152015Z 12014G20KT 32/10 A2994 RMK A01 T03150095  RH  027%=      5-min Rain = 0
KOES 152020Z 11014KT 31/10 A2993 RMK A01 T03130095  RH  027%=      5-min Rain = 0
KOES 152025Z 12015G20KT 31/08 A2993 RMK A01 T03130084  RH  025%=      5-min Rain = 0
KOES 152030Z 14012G17KT 31/08 A2992 RMK A01 T03110078  RH  024%=      5-min Rain = 0
KOES 152035Z 15012G18KT 31/08 A2992 RMK A01 T03100078  RH  024%=      5-min Rain = 0
KOES 152040Z 13013G19KT 31/09 A2992 RMK A01 T03070087  RH  026%=      5-min Rain = 0
KOES 152045Z 11012KT 30/09 A2993 RMK A01 T03040094  RH  028%=      5-min Rain = 0
KOES 152050Z 10013KT 30/11 A2993 RMK A01 T03010105  RH  031%=      5-min Rain = 0
KOES 152055Z 13009G17KT 29/12 A2994 RMK A01 T02910123  RH  037%=      5-min Rain = 0.01
KOES 152100Z 15014G21KT 28/12 A2993 RMK A01 T02790119  RH  039%=      5-min Rain = 0.01
KOES 152105Z 16010G16KT 26/10 A2993 RMK A01 T02600103  RH  039%=      5-min Rain = 0.06
KOES 152110Z 14004G9KT 24/13 A2993 RMK A01 T02390126  RH  051%=      5-min Rain = 0.08
KOES 152115Z 12007KT 24/13 A2992 RMK A01 T02400128  RH  052%=      5-min Rain = 0.03
KOES 152120Z 12007KT 25/14 A299 RMK A01 T02500141  RH  053%=      5-min Rain = 0
KOES 152125Z 11006KT 27/13 A2989 RMK A01 T02670133  RH  046%=      5-min Rain = 0
KOES 152130Z 14001KT 28/12 A2988 RMK A01 T02760122  RH  040%=      5-min Rain = 0
KOES 152135Z 16003KT 29/14 A2989 RMK A01 T02850137  RH  042%=      5-min Rain = 0
KOES 152140Z 09004KT 29/12 A299 RMK A01 T02910122  RH  037%=      5-min Rain = 0
KOES 152145Z 06004KT 30/13 A2991 RMK A01 T02950127  RH  037%=      5-min Rain = 0
KOES 152150Z 04006KT 30/14 A2991 RMK A01 T02960143  RH  041%=      5-min Rain = 0
KOES 152155Z 04015G22KT 29/16 A2991 RMK A01 T02900163  RH  049%=      5-min Rain = 0
KOES 152200Z 03017G24KT 25/16 A2992 RMK A01 T02480155  RH  059%=      5-min Rain = 0
KOES 152205Z 03012KT 24/15 A2993 RMK A01 T02440151  RH  059%=      5-min Rain = 0
KOES 152210Z 03010KT 25/14 A2993 RMK A01 T02500141  RH  053%=      5-min Rain = 0
KOES 152215Z 03009KT 25/15 A2993 RMK A01 T02530151  RH  056%=      5-min Rain = 0
KOES 152220Z 06010KT 26/16 A2992 RMK A01 T02550155  RH  056%=      5-min Rain = 0
KOES 152225Z 07011KT 26/15 A2992 RMK A01 T02580153  RH  055%=      5-min Rain = 0
KOES 152230Z 06011KT 26/15 A2991 RMK A01 T02570152  RH  055%=      5-min Rain = 0
KOES 152235Z 05008KT 26/16 A2991 RMK A01 T02570161  RH  058%=      5-min Rain = 0
KOES 152240Z 03009KT 25/17 A2991 RMK A01 T02530167  RH  062%=      5-min Rain = 0
KOES 152245Z 03009KT 25/17 A2991 RMK A01 T02450165  RH  064%=      5-min Rain = 0
KOES 152250Z 05010KT 25/17 A299 RMK A01 T02480165  RH  063%=      5-min Rain = 0
KOES 152255Z 06010KT 25/16 A299 RMK A01 T02520162  RH  060%=      5-min Rain = 0
KOES 152300Z 06011KT 25/16 A299 RMK A01 T02520162  RH  060%=      5-min Rain = 0
KOES 152305Z 06012KT 26/17 A299 RMK A01 T02550166  RH  061%=      5-min Rain = 0
KOES 152310Z 06013G18KT 26/16 A299 RMK A01 T02590161  RH  058%=      5-min Rain = 0
KOES 152315Z 06015KT 26/15 A2989 RMK A01 T02590153  RH  054%=      5-min Rain = 0
KOES 152320Z 05012KT 26/15 A2989 RMK A01 T02610152  RH  053%=      5-min Rain = 0
KOES 152325Z 05009KT 26/15 A2989 RMK A01 T02640150  RH  052%=      5-min Rain = 0
KOES 152330Z 06009KT 27/15 A2989 RMK A01 T02650146  RH  050%=      5-min Rain = 0
KOES 152335Z 06010KT 27/15 A2989 RMK A01 T02670149  RH  051%=      5-min Rain = 0
KOES 152340Z 06014KT 27/14 A2988 RMK A01 T02650142  RH  049%=      5-min Rain = 0
KOES 152345Z 07013KT 26/15 A2988 RMK A01 T02620149  RH  052%=      5-min Rain = 0
KOES 152350Z 06012KT 26/16 A2989 RMK A01 T02600160  RH  057%=      5-min Rain = 0
KOES 152355Z 06010KT 26/17 A2989 RMK A01 T02590166  RH  059%=      5-min Rain = 0
KOES 160000Z 07012KT 26/16 A2989 RMK A01 T02600162  RH  058%=      5-min Rain = 0
KOES 160005Z 08013KT 26/16 A2989 RMK A01 T02590159  RH  057%=      5-min Rain = 0
KOES 160010Z 08015KT 26/16 A299 RMK A01 T02580156  RH  056%=      5-min Rain = 0
KOES 160015Z 08014G19KT 26/16 A299 RMK A01 T02560156  RH  056%=      5-min Rain = 0
KOES 160020Z 09017G23KT 26/15 A2991 RMK A01 T02560148  RH  054%=      5-min Rain = 0
KOES 160025Z 11018KT 26/14 A2991 RMK A01 T02550138  RH  050%=      5-min Rain = 0
KOES 160030Z 10017KT 25/13 A2991 RMK A01 T02540130  RH  048%=      5-min Rain = 0
KOES 160035Z 11015KT 25/13 A2991 RMK A01 T02520129  RH  048%=      5-min Rain = 0
KOES 160040Z 11016G21KT 25/12 A2991 RMK A01 T02520124  RH  047%=      5-min Rain = 0
KOES 160045Z 11014G19KT 25/12 A299 RMK A01 T02520117  RH  044%=      5-min Rain = 0
KOES 160050Z 11013KT 25/12 A299 RMK A01 T02520119  RH  045%=      5-min Rain = 0
KOES 160055Z 12013KT 25/11 A299 RMK A01 T02520114  RH  044%=      5-min Rain = 0
KOES 160100Z 12011G18KT 25/11 A299 RMK A01 T02530106  RH  041%=      5-min Rain = 0
KOES 160105Z 12015KT 25/10 A299 RMK A01 T02520096  RH  038%=      5-min Rain = 0
KOES 160110Z 12012G17KT 25/10 A299 RMK A01 T02500097  RH  039%=      5-min Rain = 0
KOES 160115Z 13011KT 25/10 A299 RMK A01 T02480097  RH  040%=      5-min Rain = 0
KOES 160120Z 13009KT 25/10 A299 RMK A01 T02460100  RH  041%=      5-min Rain = 0
KOES 160125Z 13009KT 25/10 A299 RMK A01 T02450099  RH  041%=      5-min Rain = 0
KOES 160130Z 14010KT 24/10 A299 RMK A01 T02440096  RH  040%=      5-min Rain = 0
KOES 160135Z 14011KT 24/09 A299 RMK A01 T02440092  RH  039%=      5-min Rain = 0
KOES 160140Z 14010KT 24/09 A2991 RMK A01 T02430092  RH  039%=      5-min Rain = 0
KOES 160145Z 14010KT 24/09 A2991 RMK A01 T02420093  RH  040%=      5-min Rain = 0
KOES 160150Z 14009G14KT 24/09 A2991 RMK A01 T02400094  RH  041%=      5-min Rain = 0
KOES 160155Z 13009KT 24/10 A2991 RMK A01 T02370097  RH  042%=      5-min Rain = 0
KOES 160200Z 13007KT 24/10 A2992 RMK A01 T02360098  RH  043%=      5-min Rain = 0
KOES 160205Z 13006KT 23/10 A2992 RMK A01 T02340099  RH  044%=      5-min Rain = 0
KOES 160210Z 13006KT 23/10 A2993 RMK A01 T02320101  RH  045%=      5-min Rain = 0
KOES 160215Z 13005KT 23/10 A2994 RMK A01 T02300102  RH  046%=      5-min Rain = 0
KOES 160220Z 10004KT 23/10 A2994 RMK A01 T02280103  RH  047%=      5-min Rain = 0
KOES 160225Z 10004KT 23/10 A2995 RMK A01 T02270104  RH  047%=      5-min Rain = 0
KOES 160230Z 10005KT 23/10 A2996 RMK A01 T02260104  RH  048%=      5-min Rain = 0
KOES 160235Z 08005KT 22/11 A2996 RMK A01 T02210108  RH  050%=      5-min Rain = 0
KOES 160240Z 07003KT 22/11 A2996 RMK A01 T02160106  RH  051%=      5-min Rain = 0
KOES 160245Z 07002KT 22/10 A2996 RMK A01 T02160102  RH  050%=      5-min Rain = 0
KOES 160250Z 09002KT 22/10 A2996 RMK A01 T02170102  RH  049%=      5-min Rain = 0
KOES 160255Z 11003KT 22/10 A2996 RMK A01 T02180103  RH  049%=      5-min Rain = 0
KOES 160300Z 12006KT 22/10 A2997 RMK A01 T02180102  RH  049%=      5-min Rain = 0
KOES 160305Z 12005KT 22/10 A2998 RMK A01 T02170100  RH  049%=      5-min Rain = 0
KOES 160310Z 11007KT 22/10 A2998 RMK A01 T02180095  RH  047%=      5-min Rain = 0
KOES 160315Z 11008KT 22/10 A2998 RMK A01 T02190096  RH  047%=      5-min Rain = 0
KOES 160320Z 10007KT 22/09 A2998 RMK A01 T02190094  RH  046%=      5-min Rain = 0
KOES 160325Z 11008KT 22/10 A2998 RMK A01 T02180096  RH  047%=      5-min Rain = 0
KOES 160330Z 12007KT 22/10 A2998 RMK A01 T02160099  RH  049%=      5-min Rain = 0
KOES 160335Z 12007KT 22/10 A2998 RMK A01 T02150102  RH  050%=      5-min Rain = 0
KOES 160340Z 12008KT 21/10 A2998 RMK A01 T02140102  RH  051%=      5-min Rain = 0
KOES 160345Z 12007KT 21/10 A2998 RMK A01 T02130103  RH  051%=      5-min Rain = 0
KOES 160350Z 13008KT 22/10 A2998 RMK A01 T02150104  RH  051%=      5-min Rain = 0
KOES 160355Z 12010KT 22/10 A2998 RMK A01 T02170103  RH  050%=      5-min Rain = 0
KOES 160400Z 12011KT 22/10 A2998 RMK A01 T02190103  RH  049%=      5-min Rain = 0
KOES 160405Z 11011KT 22/11 A2998 RMK A01 T02180106  RH  051%=      5-min Rain = 0
KOES 160410Z 11012KT 22/10 A2999 RMK A01 T02170104  RH  050%=      5-min Rain = 0
KOES 160415Z 10011KT 22/10 A2999 RMK A01 T02190104  RH  050%=      5-min Rain = 0
KOES 160420Z 09011KT 22/11 A30 RMK A01 T02180108  RH  051%=      5-min Rain = 0
KOES 160425Z 07010KT 21/12 A30 RMK A01 T02050119  RH  060%=      5-min Rain = 0
KOES 160430Z 07010KT 20/12 A30 RMK A01 T01970120  RH  063%=      5-min Rain = 0
KOES 160435Z 05009KT 19/12 A30 RMK A01 T01920123  RH  067%=      5-min Rain = 0
KOES 160440Z 05010KT 19/13 A30 RMK A01 T01870125  RH  070%=      5-min Rain = 0
KOES 160445Z 06011KT 19/12 A2999 RMK A01 T01880122  RH  068%=      5-min Rain = 0
KOES 160450Z 07010KT 19/12 A2999 RMK A01 T01880124  RH  069%=      5-min Rain = 0
KOES 160455Z 05010KT 19/13 A30 RMK A01 T01850125  RH  071%=      5-min Rain = 0

Page generated in 0.0317 seconds.